Time;durP1;ratioP1;P1;durP2;ratioP2;P2;SDS_P1;SDS_P2;PMS_P1;PMS_P2;Temp;Humidity;BMP_temperature;BMP_pressure;BME280_temperature;BME280_humidity;BME280_pressure;Samples;Min_cycle;Max_cycle;Signal;HPM_P1;HPM_P2
2024/01/08 00:01:35;;;;;;;12.93;7.07;;;-5.10;99.70;;;;;;4949723;28;20202;-58
2024/01/08 00:04:00;;;;;;;11.27;5.70;;;-5.20;99.90;;;;;;4951605;28;20197;-58
2024/01/08 00:06:26;;;;;;;8.13;5.67;;;-5.10;99.90;;;;;;4950189;28;20863;-59
2024/01/08 00:08:51;;;;;;;11.07;6.97;;;-5.10;99.90;;;;;;4952730;28;20193;-58
2024/01/08 00:11:17;;;;;;;5.57;4.33;;;-5.20;99.90;;;;;;4951970;28;20321;-59
2024/01/08 00:13:43;;;;;;;9.37;5.90;;;-5.20;99.90;;;;;;4956504;28;20809;-58
2024/01/08 00:16:08;;;;;;;7.27;5.03;;;-5.20;99.90;;;;;;4957172;28;20236;-58
2024/01/08 00:18:34;;;;;;;7.50;6.10;;;-5.30;99.90;;;;;;4951326;28;20278;-58
2024/01/08 00:21:02;;;;;;;7.60;5.10;;;-5.30;99.90;;;;;;4953488;28;20568;-57
2024/01/08 00:23:29;;;;;;;8.13;5.63;;;-5.30;99.90;;;;;;4949523;28;20204;-58
2024/01/08 00:25:54;;;;;;;6.40;5.53;;;-5.30;99.90;;;;;;4952815;28;20197;-59
2024/01/08 00:28:20;;;;;;;6.73;5.30;;;-5.30;99.90;;;;;;4950099;28;20688;-58
2024/01/08 00:30:45;;;;;;;8.50;5.53;;;-5.10;99.90;;;;;;4950640;28;20205;-51
2024/01/08 00:33:11;;;;;;;7.37;4.87;;;-5.10;99.90;;;;;;4948803;28;20225;-51
2024/01/08 00:35:36;;;;;;;10.00;5.87;;;-5.20;99.90;;;;;;4953902;28;20743;-51
2024/01/08 00:38:02;;;;;;;10.00;5.87;;;-5.20;99.90;;;;;;4953390;28;20896;-51
2024/01/08 00:40:29;;;;;;;7.73;4.80;;;-5.20;99.90;;;;;;4952860;28;20213;-51
2024/01/08 00:42:55;;;;;;;9.53;5.30;;;-5.20;99.90;;;;;;4948932;28;20351;-52
2024/01/08 00:45:20;;;;;;;6.87;5.33;;;-5.20;99.90;;;;;;4955893;28;20296;-52
2024/01/08 00:47:46;;;;;;;7.83;5.83;;;-5.10;99.90;;;;;;4955296;28;20205;-52
2024/01/08 00:50:13;;;;;;;8.57;6.13;;;-5.10;99.90;;;;;;4953136;28;20198;-51
2024/01/08 00:52:39;;;;;;;11.73;4.63;;;-5.30;99.90;;;;;;4953034;28;20205;-51
2024/01/08 00:55:05;;;;;;;10.00;5.87;;;-5.50;99.90;;;;;;4957534;28;20197;-51
2024/01/08 00:57:34;;;;;;;11.23;5.60;;;-5.40;99.90;;;;;;4953630;28;20202;-52
2024/01/08 01:00:00;;;;;;;10.43;7.27;;;-5.50;99.90;;;;;;4958033;28;20283;-51
2024/01/08 01:02:26;;;;;;;9.17;6.33;;;-5.40;99.90;;;;;;4957128;28;20213;-51
2024/01/08 01:04:51;;;;;;;10.47;6.50;;;-5.40;99.90;;;;;;4957835;28;20229;-51
2024/01/08 01:07:17;;;;;;;7.47;4.77;;;-5.40;99.90;;;;;;4952628;28;20604;-52
2024/01/08 01:09:42;;;;;;;10.30;6.40;;;-5.40;99.90;;;;;;4954134;28;20602;-52
2024/01/08 01:12:09;;;;;;;7.80;5.37;;;-5.30;99.90;;;;;;4958384;28;20587;-51
2024/01/08 01:14:34;;;;;;;11.50;6.53;;;-5.40;99.90;;;;;;4956751;28;20662;-51
2024/01/08 01:17:00;;;;;;;8.73;6.07;;;-5.50;99.90;;;;;;4955436;28;21067;-61
2024/01/08 01:19:25;;;;;;;9.43;6.87;;;-5.60;99.90;;;;;;4957686;28;20217;-58
2024/01/08 01:21:51;;;;;;;10.33;5.27;;;-5.50;99.90;;;;;;4953631;28;20193;-59
2024/01/08 01:24:16;;;;;;;6.57;5.63;;;-5.50;99.90;;;;;;4952995;28;20197;-60
2024/01/08 01:26:42;;;;;;;13.33;7.50;;;-5.50;99.90;;;;;;4952899;28;20202;-61
2024/01/08 01:29:08;;;;;;;10.03;6.43;;;-5.50;99.90;;;;;;4954928;28;20280;-59
2024/01/08 01:31:33;;;;;;;8.30;5.20;;;-5.60;99.90;;;;;;4957521;28;20320;-59
2024/01/08 01:34:06;;;;;;;9.93;6.23;;;-5.50;99.90;;;;;;4954079;28;20675;-59
2024/01/08 01:36:35;;;;;;;9.33;5.67;;;-5.60;99.90;;;;;;4955912;28;20229;-58
2024/01/08 01:39:01;;;;;;;10.60;5.97;;;-5.50;99.90;;;;;;4960537;28;20226;-59
2024/01/08 01:41:27;;;;;;;8.40;6.13;;;-5.50;99.90;;;;;;4955224;28;20198;-59
2024/01/08 01:43:52;;;;;;;7.47;4.40;;;-5.50;99.90;;;;;;4955640;28;20722;-52
2024/01/08 01:46:31;;;;;;;4.40;4.00;;;-5.40;99.90;;;;;;4955355;28;20289;-50
2024/01/08 01:48:57;;;;;;;10.23;5.70;;;-5.60;99.90;;;;;;4954324;28;20193;-52
2024/01/08 01:51:23;;;;;;;8.97;4.97;;;-5.70;99.90;;;;;;4954724;28;20529;-53
2024/01/08 01:53:49;;;;;;;11.37;6.30;;;-5.70;99.90;;;;;;4956312;28;20213;-51
2024/01/08 01:56:15;;;;;;;5.67;4.77;;;-5.70;99.90;;;;;;4955000;28;20205;-50
2024/01/08 01:58:41;;;;;;;7.77;5.13;;;-5.50;99.90;;;;;;4950443;28;20501;-50
2024/01/08 02:01:07;;;;;;;7.97;5.30;;;-5.60;99.90;;;;;;4954117;28;20205;-51
2024/01/08 02:03:33;;;;;;;10.50;5.33;;;-5.70;99.90;;;;;;4955291;28;20198;-58
2024/01/08 02:05:58;;;;;;;8.97;4.80;;;-5.60;99.90;;;;;;4954826;28;20272;-52
2024/01/08 02:08:25;;;;;;;9.10;5.63;;;-5.50;99.90;;;;;;4957997;28;20291;-53
2024/01/08 02:10:52;;;;;;;12.87;6.67;;;-5.60;99.90;;;;;;4953863;28;20686;-53
2024/01/08 02:13:17;;;;;;;6.37;5.13;;;-5.60;99.90;;;;;;4951766;28;20202;-52
2024/01/08 02:15:42;;;;;;;4.17;3.43;;;-5.70;99.90;;;;;;4953739;28;20193;-54
2024/01/08 02:18:08;;;;;;;6.40;4.07;;;-5.70;99.90;;;;;;4954167;28;20209;-53
2024/01/08 02:20:34;;;;;;;7.53;5.07;;;-5.70;99.90;;;;;;4955092;28;20653;-52
2024/01/08 02:22:59;;;;;;;12.00;5.53;;;-5.60;99.90;;;;;;4950053;28;20233;-52
2024/01/08 02:25:26;;;;;;;10.77;5.83;;;-5.60;99.90;;;;;;4953502;28;20205;-52
2024/01/08 02:27:52;;;;;;;6.73;4.73;;;-5.60;99.90;;;;;;4953898;28;20208;-52
2024/01/08 02:30:18;;;;;;;7.87;5.97;;;-5.50;99.90;;;;;;4951477;28;20202;-50
2024/01/08 02:32:44;;;;;;;7.97;4.57;;;-5.50;99.90;;;;;;4954450;28;20702;-52
2024/01/08 02:35:10;;;;;;;9.63;6.37;;;-5.50;99.90;;;;;;4954240;28;20347;-50
2024/01/08 02:37:35;;;;;;;8.93;5.67;;;-5.60;99.90;;;;;;4953874;28;20281;-52
2024/01/08 02:40:01;;;;;;;10.60;6.13;;;-5.50;99.90;;;;;;4953761;28;20308;-51
2024/01/08 02:42:26;;;;;;;11.80;6.13;;;-5.50;99.90;;;;;;4951672;28;20889;-50
2024/01/08 02:44:52;;;;;;;5.40;3.50;;;-5.60;99.90;;;;;;4951576;28;20202;-50
2024/01/08 02:47:17;;;;;;;5.73;4.10;;;-5.70;99.90;;;;;;4953271;28;20229;-51
2024/01/08 02:49:43;;;;;;;8.73;5.20;;;-5.60;99.90;;;;;;4956321;28;20974;-52
2024/01/08 02:52:08;;;;;;;12.03;6.03;;;-5.70;99.90;;;;;;4954698;28;23326;-51
2024/01/08 02:54:34;;;;;;;10.63;6.10;;;-5.80;99.90;;;;;;4951152;28;20251;-51
2024/01/08 02:56:59;;;;;;;8.07;5.23;;;-5.80;99.90;;;;;;4947884;28;20202;-50
2024/01/08 02:59:25;;;;;;;7.57;4.23;;;-5.80;99.90;;;;;;4954379;28;20217;-51
2024/01/08 03:01:50;;;;;;;8.47;5.77;;;-5.80;99.90;;;;;;4955448;28;20255;-50
2024/01/08 03:04:16;;;;;;;7.37;5.20;;;-5.80;99.90;;;;;;4956614;28;20774;-50
2024/01/08 03:06:41;;;;;;;8.47;5.53;;;-5.70;99.90;;;;;;4960282;28;20267;-50
2024/01/08 03:09:07;;;;;;;7.93;5.20;;;-5.70;99.90;;;;;;4954805;28;20269;-50
2024/01/08 03:11:32;;;;;;;9.53;6.27;;;-5.70;99.90;;;;;;4959009;28;20822;-50
2024/01/08 03:13:58;;;;;;;6.87;5.07;;;-5.70;99.90;;;;;;4958031;28;20193;-50
2024/01/08 03:16:23;;;;;;;11.13;6.10;;;-5.60;99.90;;;;;;4960840;28;20296;-50
2024/01/08 03:18:49;;;;;;;11.03;6.37;;;-5.60;99.90;;;;;;4953791;28;20198;-51
2024/01/08 03:21:14;;;;;;;5.80;5.17;;;-5.70;99.90;;;;;;4956068;28;20212;-50
2024/01/08 03:23:40;;;;;;;7.60;5.47;;;-5.80;99.90;;;;;;4952895;28;20206;-51
2024/01/08 03:26:06;;;;;;;10.07;6.83;;;-5.70;99.90;;;;;;4953285;28;20224;-51
2024/01/08 03:28:32;;;;;;;7.43;5.20;;;-5.60;99.90;;;;;;4948627;28;20799;-52
2024/01/08 03:30:57;;;;;;;10.37;6.07;;;-5.50;99.90;;;;;;4955938;28;20205;-52
2024/01/08 03:33:23;;;;;;;9.03;5.97;;;-5.60;99.90;;;;;;4958936;28;20274;-51
2024/01/08 03:35:48;;;;;;;6.97;5.23;;;-5.60;99.90;;;;;;4953770;28;20292;-52
2024/01/08 03:38:14;;;;;;;8.53;5.97;;;-5.60;99.30;;;;;;4955516;28;20205;-58
2024/01/08 03:40:39;;;;;;;10.60;6.47;;;-5.50;99.90;;;;;;4951933;28;20727;-57
2024/01/08 03:43:05;;;;;;;7.23;5.47;;;-5.50;99.70;;;;;;4953955;28;20838;-57
2024/01/08 03:45:30;;;;;;;7.43;5.17;;;-5.50;99.90;;;;;;4954579;28;20727;-51
2024/01/08 03:47:56;;;;;;;9.17;6.00;;;-5.40;99.90;;;;;;4954551;28;20206;-51
2024/01/08 03:50:21;;;;;;;8.93;5.80;;;-5.30;99.90;;;;;;4955311;28;20201;-50
2024/01/08 03:52:47;;;;;;;10.57;6.07;;;-5.40;99.40;;;;;;4956453;28;20272;-50
2024/01/08 03:55:12;;;;;;;8.50;5.40;;;-5.50;99.00;;;;;;4957268;28;20213;-51
2024/01/08 03:57:38;;;;;;;7.83;5.50;;;-5.60;99.20;;;;;;4950670;28;20198;-51
2024/01/08 04:00:03;;;;;;;4.30;3.10;;;-5.60;99.60;;;;;;4951626;28;20240;-50
2024/01/08 04:02:29;;;;;;;6.77;5.60;;;-5.50;98.80;;;;;;4955123;28;20216;-51
2024/01/08 04:04:55;;;;;;;11.20;5.37;;;-5.50;98.70;;;;;;4951451;28;20271;-51
2024/01/08 04:07:20;;;;;;;10.40;5.40;;;-5.60;99.10;;;;;;4955680;28;20866;-51
2024/01/08 04:09:45;;;;;;;9.40;5.33;;;-5.50;99.30;;;;;;4961160;28;20303;-52
2024/01/08 04:12:12;;;;;;;9.07;6.27;;;-5.50;99.30;;;;;;4955230;28;20636;-52
2024/01/08 04:14:38;;;;;;;8.03;5.97;;;-5.50;98.90;;;;;;4962098;28;20200;-52
2024/01/08 04:17:05;;;;;;;7.90;5.57;;;-5.50;99.00;;;;;;4959927;28;20575;-52
2024/01/08 04:19:31;;;;;;;10.20;6.67;;;-5.40;99.30;;;;;;4959584;28;20660;-52
2024/01/08 04:21:56;;;;;;;7.43;4.90;;;-5.30;99.40;;;;;;4959848;28;20205;-50
2024/01/08 04:24:22;;;;;;;10.17;6.33;;;-5.30;98.80;;;;;;4957130;28;20193;-52
2024/01/08 04:26:47;;;;;;;6.90;5.20;;;-5.30;98.30;;;;;;4958725;28;20742;-50
2024/01/08 04:29:13;;;;;;;6.97;4.40;;;-5.40;98.60;;;;;;4965944;28;20289;-54
2024/01/08 04:31:38;;;;;;;6.37;3.97;;;-5.40;98.70;;;;;;4961129;28;20236;-50
2024/01/08 04:34:04;;;;;;;8.33;4.63;;;-5.50;98.20;;;;;;4956578;28;20213;-50
2024/01/08 04:36:29;;;;;;;8.53;6.00;;;-5.50;98.80;;;;;;4954217;28;20288;-50
2024/01/08 04:38:55;;;;;;;13.47;5.70;;;-5.60;98.80;;;;;;4956476;28;20205;-51
2024/01/08 04:41:20;;;;;;;9.77;7.27;;;-5.50;98.70;;;;;;4958152;28;20628;-51
2024/01/08 04:43:47;;;;;;;5.47;4.37;;;-5.60;98.90;;;;;;4958041;28;20206;-50
2024/01/08 04:46:13;;;;;;;13.80;7.07;;;-5.50;99.10;;;;;;4954557;28;20304;-51
2024/01/08 04:48:40;;;;;;;8.50;5.57;;;-5.60;98.50;;;;;;4957622;28;20206;-50
2024/01/08 04:51:05;;;;;;;11.90;6.47;;;-5.60;99.30;;;;;;4957949;28;20208;-50
2024/01/08 04:53:36;;;;;;;11.57;6.60;;;-5.60;98.90;;;;;;4954919;28;20237;-51
2024/01/08 04:56:02;;;;;;;8.17;6.07;;;-5.50;99.70;;;;;;4955770;28;20630;-51
2024/01/08 04:58:28;;;;;;;9.53;5.70;;;-5.50;98.90;;;;;;4955662;28;20778;-51
2024/01/08 05:00:54;;;;;;;6.90;5.27;;;-5.40;98.60;;;;;;4958827;28;20220;-51
2024/01/08 05:03:19;;;;;;;13.33;6.13;;;-5.30;98.80;;;;;;4955710;28;20290;-51
2024/01/08 05:05:45;;;;;;;10.47;6.00;;;-5.40;98.90;;;;;;4954668;28;20205;-51
2024/01/08 05:08:10;;;;;;;9.73;5.77;;;-5.50;98.80;;;;;;4963382;28;20261;-52
2024/01/08 05:10:36;;;;;;;7.13;5.60;;;-5.40;99.00;;;;;;4959778;28;20296;-51
2024/01/08 05:13:01;;;;;;;9.20;5.37;;;-5.40;99.10;;;;;;4955949;28;20680;-51
2024/01/08 05:15:27;;;;;;;15.00;7.53;;;-5.30;99.40;;;;;;4953826;28;20221;-51
2024/01/08 05:17:52;;;;;;;10.83;5.90;;;-5.30;99.70;;;;;;4966861;28;20196;-51
2024/01/08 05:20:17;;;;;;;10.93;7.23;;;-5.30;99.60;;;;;;4955528;28;20232;-51
2024/01/08 05:22:43;;;;;;;8.43;5.87;;;-5.10;99.90;;;;;;4959747;28;21244;-51
2024/01/08 05:25:09;;;;;;;9.60;6.60;;;-5.00;99.90;;;;;;4956051;28;20266;-50
2024/01/08 05:27:35;;;;;;;10.80;6.13;;;-5.10;99.80;;;;;;4955001;28;20206;-50
2024/01/08 05:30:00;;;;;;;10.80;6.40;;;-5.00;99.50;;;;;;4957884;28;20560;-51
2024/01/08 05:32:26;;;;;;;8.07;5.30;;;-5.00;99.90;;;;;;4962033;28;20676;-51
2024/01/08 05:34:51;;;;;;;10.77;6.23;;;-5.00;99.20;;;;;;4959517;28;20683;-52
2024/01/08 05:37:17;;;;;;;10.03;6.23;;;-5.30;99.20;;;;;;4958173;28;20246;-51
2024/01/08 05:39:42;;;;;;;11.27;6.50;;;-5.30;99.90;;;;;;4957919;28;20229;-51
2024/01/08 05:42:07;;;;;;;9.70;5.63;;;-5.30;99.90;;;;;;4953511;28;20214;-51
2024/01/08 05:44:34;;;;;;;8.10;6.20;;;-5.20;99.90;;;;;;4961280;28;20570;-51
2024/01/08 05:47:00;;;;;;;11.33;6.40;;;-5.30;99.90;;;;;;4958504;28;20197;-58
2024/01/08 05:49:26;;;;;;;8.57;6.10;;;-5.30;99.90;;;;;;4957762;28;20686;-59
2024/01/08 05:51:51;;;;;;;10.57;7.07;;;-5.30;99.90;;;;;;4958108;28;20208;-51
2024/01/08 05:54:17;;;;;;;11.67;5.90;;;-5.40;99.90;;;;;;4956555;28;20201;-52
2024/01/08 05:56:42;;;;;;;6.97;5.77;;;-5.30;99.90;;;;;;4951623;28;20205;-52
2024/01/08 05:59:08;;;;;;;9.80;6.40;;;-5.30;99.90;;;;;;4948822;28;20300;-51
2024/01/08 06:01:34;;;;;;;9.07;7.07;;;-5.40;99.90;;;;;;4950597;28;20247;-50
2024/01/08 06:04:00;;;;;;;11.87;7.03;;;-5.50;99.90;;;;;;4954559;28;20205;-50
2024/01/08 06:06:25;;;;;;;9.17;5.90;;;-5.30;99.90;;;;;;4956991;28;20263;-52
2024/01/08 06:08:51;;;;;;;13.20;6.97;;;-5.30;99.90;;;;;;4955455;28;20205;-52
2024/01/08 06:11:17;;;;;;;10.20;5.53;;;-5.20;99.90;;;;;;4961363;28;20197;-51
2024/01/08 06:13:42;;;;;;;13.10;7.07;;;-5.20;99.90;;;;;;4953627;28;20201;-51
2024/01/08 06:16:14;;;;;;;9.50;6.37;;;-5.40;99.90;;;;;;4958452;28;20492;-52
2024/01/08 06:18:39;;;;;;;8.00;5.60;;;-5.30;99.90;;;;;;4963437;28;20208;-51
2024/01/08 06:21:05;;;;;;;11.00;6.37;;;-5.30;99.90;;;;;;4962985;28;20229;-52
2024/01/08 06:23:30;;;;;;;11.43;7.03;;;-5.40;99.90;;;;;;4968482;28;20197;-51
2024/01/08 06:25:56;;;;;;;12.33;7.20;;;-5.50;99.90;;;;;;4958764;28;20198;-52
2024/01/08 06:28:21;;;;;;;9.63;5.83;;;-5.50;99.90;;;;;;4957541;28;20208;-51
2024/01/08 06:30:47;;;;;;;9.87;5.83;;;-5.40;99.90;;;;;;4958838;28;20254;-51
2024/01/08 06:33:12;;;;;;;6.77;5.60;;;-5.50;99.90;;;;;;4953754;28;20240;-51
2024/01/08 06:35:40;;;;;;;9.97;5.60;;;-5.60;99.90;;;;;;4959376;28;20762;-52
2024/01/08 06:38:05;;;;;;;12.60;6.83;;;-5.50;99.90;;;;;;4951898;28;20213;-52
2024/01/08 06:40:31;;;;;;;11.67;6.07;;;-5.50;99.90;;;;;;4954902;28;20222;-51
2024/01/08 06:42:56;;;;;;;6.73;5.93;;;-5.40;99.90;;;;;;4965315;28;20216;-52
2024/01/08 06:45:22;;;;;;;11.53;7.03;;;-5.40;99.90;;;;;;4958092;28;20210;-60
2024/01/08 06:47:47;;;;;;;9.73;7.10;;;-5.40;99.90;;;;;;4957672;28;20201;-64
2024/01/08 06:50:13;;;;;;;7.83;6.17;;;-5.40;99.90;;;;;;4959480;28;20664;-52
2024/01/08 06:52:38;;;;;;;11.47;6.90;;;-5.50;99.90;;;;;;4964424;28;20295;-52
2024/01/08 06:55:04;;;;;;;9.37;5.70;;;-5.50;99.90;;;;;;4959520;28;20559;-52
2024/01/08 06:57:30;;;;;;;10.53;6.77;;;-5.50;99.90;;;;;;4950048;28;20212;-51
2024/01/08 06:59:55;;;;;;;10.57;7.00;;;-5.40;99.90;;;;;;4955092;28;20259;-51
2024/01/08 07:02:21;;;;;;;10.20;7.37;;;-5.40;99.90;;;;;;4956342;28;20209;-51
2024/01/08 07:04:47;;;;;;;10.00;6.20;;;-5.40;99.90;;;;;;4957392;28;20751;-50
2024/01/08 07:07:12;;;;;;;12.97;5.93;;;-5.50;99.90;;;;;;4955167;28;20755;-51
2024/01/08 07:09:38;;;;;;;7.73;4.00;;;-5.60;99.90;;;;;;4955594;28;20202;-50
2024/01/08 07:12:04;;;;;;;11.83;7.67;;;-5.50;99.90;;;;;;4954370;28;20578;-50
2024/01/08 07:14:31;;;;;;;13.03;7.47;;;-5.60;99.90;;;;;;4952628;28;20219;-52
2024/01/08 07:16:56;;;;;;;10.40;6.97;;;-5.60;99.90;;;;;;4957533;28;20243;-50
2024/01/08 07:19:22;;;;;;;12.03;7.53;;;-5.50;99.90;;;;;;4962761;28;20213;-50
2024/01/08 07:21:47;;;;;;;10.07;6.87;;;-5.50;99.90;;;;;;4962673;28;20197;-51
2024/01/08 07:24:12;;;;;;;11.73;6.43;;;-5.60;99.90;;;;;;4954326;28;20217;-50
2024/01/08 07:26:38;;;;;;;6.20;5.17;;;-5.60;99.90;;;;;;4954684;28;20213;-51
2024/01/08 07:29:15;;;;;;;9.73;6.60;;;-5.60;99.90;;;;;;4953456;28;20579;-51
2024/01/08 07:31:45;;;;;;;12.27;6.37;;;-5.70;99.90;;;;;;4958346;28;20259;-51
2024/01/08 07:34:14;;;;;;;11.50;6.43;;;-5.70;99.90;;;;;;4957269;28;20280;-52
2024/01/08 07:36:40;;;;;;;7.23;5.93;;;-5.80;99.90;;;;;;4957542;28;20220;-51
2024/01/08 07:39:05;;;;;;;9.03;6.13;;;-5.70;99.90;;;;;;4955897;28;20733;-52
2024/01/08 07:41:31;;;;;;;11.17;6.37;;;-5.80;99.90;;;;;;4959862;28;20201;-52
2024/01/08 07:43:56;;;;;;;9.63;5.97;;;-5.80;99.90;;;;;;4960321;28;20209;-51
2024/01/08 07:46:22;;;;;;;15.03;7.53;;;-5.70;99.90;;;;;;4964971;28;20290;-51
2024/01/08 07:48:49;;;;;;;12.70;7.13;;;-5.80;99.90;;;;;;4958332;28;20292;-52
2024/01/08 07:51:20;;;;;;;8.93;5.80;;;-5.90;99.90;;;;;;4953672;28;20711;-52
2024/01/08 07:53:46;;;;;;;10.13;7.20;;;-5.80;99.90;;;;;;4952980;28;20224;-51
2024/01/08 07:56:12;;;;;;;11.23;8.40;;;-5.70;99.90;;;;;;4955003;28;20654;-51
2024/01/08 07:58:37;;;;;;;11.93;7.17;;;-5.70;99.90;;;;;;4959028;28;20193;-51
2024/01/08 08:01:03;;;;;;;10.03;6.67;;;-5.60;99.90;;;;;;4959676;28;20699;-51
2024/01/08 08:03:28;;;;;;;13.67;7.27;;;-5.60;99.90;;;;;;4953518;28;20794;-50
2024/01/08 08:05:54;;;;;;;12.23;8.60;;;-5.70;99.90;;;;;;4956448;28;20205;-51
2024/01/08 08:08:19;;;;;;;9.77;6.90;;;-5.70;99.90;;;;;;4957836;28;20217;-51
2024/01/08 08:10:45;;;;;;;13.40;7.07;;;-5.70;99.90;;;;;;4961324;28;20291;-51
2024/01/08 08:13:10;;;;;;;12.37;7.23;;;-5.70;99.90;;;;;;4957421;28;20936;-49
2024/01/08 08:15:36;;;;;;;11.60;7.27;;;-5.70;99.90;;;;;;4961287;28;20205;-52
2024/01/08 08:18:01;;;;;;;10.70;6.63;;;-5.70;99.90;;;;;;4962268;28;20212;-51
2024/01/08 08:20:27;;;;;;;10.20;6.83;;;-5.60;99.90;;;;;;4957194;28;20976;-51
2024/01/08 08:22:52;;;;;;;11.97;7.70;;;-5.60;99.90;;;;;;4959033;28;20216;-51
2024/01/08 08:25:18;;;;;;;12.33;7.60;;;-5.50;99.90;;;;;;4963430;28;20579;-51
2024/01/08 08:27:43;;;;;;;9.83;5.93;;;-5.60;99.90;;;;;;4957986;28;20718;-51
2024/01/08 08:30:12;;;;;;;9.97;6.30;;;-5.70;99.90;;;;;;4959269;28;20205;-51
2024/01/08 08:32:39;;;;;;;13.60;7.37;;;-5.70;99.90;;;;;;4957928;28;20703;-51
2024/01/08 08:35:08;;;;;;;10.10;6.67;;;-5.60;99.90;;;;;;4959447;28;20193;-51
2024/01/08 08:37:34;;;;;;;8.70;6.90;;;-5.60;99.90;;;;;;4961886;28;20682;-51
2024/01/08 08:39:59;;;;;;;11.83;7.57;;;-5.60;99.90;;;;;;4959302;28;20686;-51
2024/01/08 08:42:25;;;;;;;10.80;7.70;;;-5.60;99.90;;;;;;4963089;28;20201;-52
2024/01/08 08:44:51;;;;;;;12.80;7.83;;;-5.60;99.90;;;;;;4952893;28;20708;-60
2024/01/08 08:47:16;;;;;;;10.10;6.70;;;-5.50;99.90;;;;;;4956125;28;20259;-57
2024/01/08 08:49:41;;;;;;;13.67;7.17;;;-5.50;99.90;;;;;;4957872;28;20201;-51
2024/01/08 08:52:07;;;;;;;12.53;7.80;;;-5.50;99.90;;;;;;4954141;28;20209;-51
2024/01/08 08:54:32;;;;;;;9.43;5.80;;;-5.50;99.90;;;;;;4955613;28;20696;-51
2024/01/08 08:56:58;;;;;;;11.60;7.37;;;-5.70;99.90;;;;;;4958326;28;20217;-50
2024/01/08 08:59:23;;;;;;;9.53;7.47;;;-5.60;99.90;;;;;;4948323;28;20226;-51
2024/01/08 09:01:50;;;;;;;14.30;7.47;;;-5.40;99.90;;;;;;4951784;28;20229;-50
2024/01/08 09:04:16;;;;;;;9.60;6.23;;;-5.40;99.90;;;;;;4956999;28;20213;-51
2024/01/08 09:06:41;;;;;;;13.40;7.47;;;-5.40;99.90;;;;;;4954736;28;20243;-53
2024/01/08 09:09:09;;;;;;;12.30;7.27;;;-5.40;99.90;;;;;;4951708;28;20255;-50
2024/01/08 09:11:35;;;;;;;11.50;7.33;;;-5.40;99.90;;;;;;4954236;28;20683;-51
2024/01/08 09:14:01;;;;;;;15.73;8.03;;;-5.30;99.90;;;;;;4957516;28;20566;-52
2024/01/08 09:16:27;;;;;;;8.53;6.70;;;-5.20;99.90;;;;;;4954530;28;20201;-58
2024/01/08 09:18:53;;;;;;;8.87;7.17;;;-5.10;99.90;;;;;;4951686;28;20206;-51
2024/01/08 09:21:18;;;;;;;7.57;4.47;;;-5.00;99.90;;;;;;4949914;28;20198;-58
2024/01/08 09:23:44;;;;;;;8.40;6.60;;;-5.00;99.90;;;;;;4952070;28;20672;-57
2024/01/08 09:26:10;;;;;;;12.47;6.70;;;-5.00;99.90;;;;;;4954684;28;20236;-54
2024/01/08 09:28:36;;;;;;;7.37;5.20;;;-5.10;99.90;;;;;;4955974;28;20193;-52
2024/01/08 09:31:03;;;;;;;9.73;6.47;;;-5.00;99.90;;;;;;4948863;28;20208;-52
2024/01/08 09:33:29;;;;;;;10.70;5.93;;;-4.90;99.90;;;;;;4951238;28;20687;-51
2024/01/08 09:35:55;;;;;;;11.30;7.47;;;-4.90;99.90;;;;;;4956690;28;20288;-52
2024/01/08 09:38:20;;;;;;;10.67;7.63;;;-4.90;99.90;;;;;;4955931;28;20209;-51
2024/01/08 09:40:47;;;;;;;11.00;7.00;;;-4.80;99.90;;;;;;4950923;28;20290;-53
2024/01/08 09:43:15;;;;;;;8.00;6.50;;;-4.70;99.90;;;;;;4961996;28;20205;-61
2024/01/08 09:46:06;;;;;;;11.37;6.77;;;-4.60;99.90;;;;;;4954008;28;20215;-53
2024/01/08 09:48:34;;;;;;;9.30;6.27;;;-4.60;99.90;;;;;;4957770;28;20228;-52
2024/01/08 09:51:02;;;;;;;6.90;4.87;;;-4.50;99.90;;;;;;4953971;28;20284;-51
2024/01/08 09:53:29;;;;;;;9.00;6.33;;;-4.50;99.90;;;;;;4960569;28;20216;-51
2024/01/08 09:55:54;;;;;;;8.67;6.03;;;-4.60;99.90;;;;;;4963095;28;20284;-51
2024/01/08 09:58:20;;;;;;;11.80;6.60;;;-4.50;99.90;;;;;;4961074;28;20641;-51
2024/01/08 10:00:45;;;;;;;8.47;7.00;;;-4.50;99.90;;;;;;4954168;28;20263;-58
2024/01/08 10:03:11;;;;;;;11.63;6.97;;;-4.20;99.90;;;;;;4960726;28;20276;-53
2024/01/08 10:05:38;;;;;;;6.37;4.80;;;-4.20;99.90;;;;;;4962981;28;21072;-58
2024/01/08 10:08:04;;;;;;;5.07;4.57;;;-4.20;99.90;;;;;;4948703;28;20206;-53
2024/01/08 10:10:30;;;;;;;6.57;5.17;;;-4.20;99.90;;;;;;4954667;28;20280;-50
2024/01/08 10:12:56;;;;;;;5.73;4.30;;;-4.20;99.90;;;;;;4950737;28;20335;-58
2024/01/08 10:15:24;;;;;;;11.60;5.50;;;-4.10;99.90;;;;;;4951273;28;20297;-50
2024/01/08 10:17:51;;;;;;;7.43;5.77;;;-4.00;99.90;;;;;;4958277;28;20197;-52
2024/01/08 10:20:17;;;;;;;7.47;4.70;;;-3.90;99.90;;;;;;4958605;28;20290;-52
2024/01/08 10:22:45;;;;;;;10.67;5.33;;;-3.90;99.00;;;;;;4953010;28;20190;-57
2024/01/08 10:25:11;;;;;;;6.97;4.70;;;-3.90;99.80;;;;;;4952646;28;20202;-58
2024/01/08 10:27:36;;;;;;;8.87;4.77;;;-3.70;99.80;;;;;;4951494;28;20210;-60
2024/01/08 10:30:03;;;;;;;6.17;4.37;;;-3.60;98.50;;;;;;4945735;28;20212;-53
2024/01/08 10:32:31;;;;;;;7.57;5.23;;;-3.40;97.80;;;;;;4953016;28;20725;-52
2024/01/08 10:34:57;;;;;;;5.57;3.80;;;-3.40;96.10;;;;;;4956780;28;20206;-53
2024/01/08 10:37:24;;;;;;;6.70;4.53;;;-3.40;96.00;;;;;;4954651;28;20298;-53
2024/01/08 10:39:51;;;;;;;8.40;5.10;;;-3.20;96.20;;;;;;4952293;28;20252;-53
2024/01/08 10:42:17;;;;;;;6.13;4.83;;;-3.00;95.50;;;;;;4954250;28;20209;-53
2024/01/08 10:44:43;;;;;;;7.30;4.97;;;-2.90;95.50;;;;;;4954262;28;20202;-54
2024/01/08 10:47:19;;;;;;;5.70;4.87;;;-2.80;96.00;;;;;;4951552;28;21013;-62
2024/01/08 10:49:55;;;;;;;9.13;3.90;;;-2.60;94.80;;;;;;4957019;28;20201;-60
2024/01/08 10:52:26;;;;;;;10.50;5.87;;;-2.70;94.90;;;;;;4953519;28;20210;-54
2024/01/08 10:54:57;;;;;;;6.03;4.00;;;-2.70;95.30;;;;;;4951209;28;20213;-61
2024/01/08 10:57:33;;;;;;;4.97;4.20;;;-2.50;93.20;;;;;;4943074;28;20201;-52
2024/01/08 11:00:00;;;;;;;9.07;5.40;;;-2.30;93.30;;;;;;4949379;28;20217;-52
2024/01/08 11:02:26;;;;;;;7.37;5.27;;;-2.40;93.20;;;;;;4952436;28;20681;-51
2024/01/08 11:04:59;;;;;;;5.80;4.83;;;-2.30;93.10;;;;;;4962100;28;20199;-51
2024/01/08 11:07:25;;;;;;;9.10;4.67;;;-2.40;92.80;;;;;;4964690;28;20193;-52
2024/01/08 11:09:52;;;;;;;7.73;4.53;;;-2.30;92.10;;;;;;4954249;28;20199;-52
2024/01/08 11:12:18;;;;;;;7.80;4.63;;;-2.10;92.30;;;;;;4953849;28;20221;-58
2024/01/08 11:14:46;;;;;;;5.93;4.47;;;-1.90;91.60;;;;;;4952706;28;20317;-57
2024/01/08 11:17:14;;;;;;;4.80;4.27;;;-1.90;91.40;;;;;;4943427;28;20211;-59
2024/01/08 11:19:45;;;;;;;7.50;3.80;;;-1.90;90.50;;;;;;4951331;28;20346;-58
2024/01/08 11:22:11;;;;;;;5.43;3.83;;;-2.10;90.70;;;;;;4946215;28;20202;-55
2024/01/08 11:24:38;;;;;;;6.77;3.73;;;-2.30;90.50;;;;;;4951648;28;20772;-52
2024/01/08 11:27:04;;;;;;;8.27;4.57;;;-2.10;90.40;;;;;;4955988;28;20224;-51
2024/01/08 11:29:32;;;;;;;5.23;4.23;;;-1.90;88.50;;;;;;4957808;28;20558;-51
2024/01/08 11:32:26;;;;;;;4.33;3.50;;;-1.70;87.30;;;;;;4951504;28;20238;-58
2024/01/08 11:35:03;;;;;;;6.40;3.60;;;-1.80;84.50;;;;;;4949601;28;20245;-71
2024/01/08 11:37:39;;;;;;;6.57;3.40;;;-1.50;83.40;;;;;;4957091;28;20334;-53
2024/01/08 11:40:17;;;;;;;6.37;4.00;;;-1.40;82.00;;;;;;4952346;28;20222;-62
2024/01/08 11:42:50;;;;;;;5.03;4.00;;;-1.00;76.70;;;;;;4954354;28;20198;-50
2024/01/08 11:45:16;;;;;;;4.87;3.87;;;-0.90;77.00;;;;;;4958095;28;20570;-51
2024/01/08 11:47:43;;;;;;;5.67;3.17;;;-1.10;77.30;;;;;;4961830;28;20202;-51
2024/01/08 11:50:09;;;;;;;4.33;3.73;;;-0.90;77.30;;;;;;4950340;28;20687;-51
2024/01/08 11:52:37;;;;;;;4.77;3.50;;;-0.50;74.20;;;;;;4955198;28;20220;-51
2024/01/08 11:55:06;;;;;;;5.40;4.27;;;-1.20;73.60;;;;;;4958597;28;20694;-51
2024/01/08 11:57:33;;;;;;;5.20;3.07;;;-0.50;72.30;;;;;;4958961;28;20567;-51
2024/01/08 11:59:59;;;;;;;8.10;4.00;;;-0.50;70.90;;;;;;4953533;28;20212;-51
2024/01/08 12:02:28;;;;;;;8.97;3.80;;;-0.30;70.50;;;;;;4957167;28;20273;-51
2024/01/08 12:04:59;;;;;;;7.90;3.80;;;-0.20;69.80;;;;;;4961689;28;20280;-51
2024/01/08 12:07:29;;;;;;;4.80;3.60;;;0.00;69.20;;;;;;4961309;28;20199;-51
2024/01/08 12:09:55;;;;;;;7.27;3.93;;;0.30;66.30;;;;;;4954864;28;20229;-52
2024/01/08 12:12:24;;;;;;;6.13;3.57;;;0.40;62.20;;;;;;4957777;28;20262;-53
2024/01/08 12:14:51;;;;;;;5.53;2.77;;;0.60;62.10;;;;;;4949782;28;20265;-52
2024/01/08 12:17:21;;;;;;;3.70;2.73;;;0.50;62.00;;;;;;4955786;28;20193;-51
2024/01/08 12:19:50;;;;;;;5.03;3.90;;;-0.20;61.80;;;;;;4951760;28;20219;-51
2024/01/08 12:22:19;;;;;;;4.53;3.17;;;-0.20;62.80;;;;;;4955269;28;20212;-52
2024/01/08 12:24:52;;;;;;;4.47;3.60;;;0.10;64.00;;;;;;4952908;28;20224;-50
2024/01/08 12:27:20;;;;;;;4.77;3.03;;;0.60;63.90;;;;;;4954553;28;20661;-51
2024/01/08 12:29:49;;;;;;;4.77;3.70;;;1.10;60.30;;;;;;4954669;28;20201;-51
2024/01/08 12:32:16;;;;;;;5.63;3.77;;;1.00;58.80;;;;;;4951573;28;20236;-51
2024/01/08 12:34:42;;;;;;;4.40;2.70;;;1.00;58.70;;;;;;4955249;28;20588;-50
2024/01/08 12:37:09;;;;;;;4.70;3.87;;;1.20;58.50;;;;;;4951622;28;20210;-51
2024/01/08 12:39:35;;;;;;;4.53;3.30;;;1.50;58.40;;;;;;4950712;28;20233;-51